This is the latest recevied weather packets stored in our database for station/object SAVIL. If no packets are shown the sender has not sent any weather packets the latest 10 day(s).
| Time | Temp. | Humidity | Pressure | Rain* | Wind** | Luminosity | Snow |
|---|---|---|---|---|---|---|---|
| 1777151187 | 1.11° C | 61% | 993.5 hPa | 0 mm | - | - | - |
| 1777149987 | 1.11° C | 61% | 993.3 hPa | 0 mm | - | - | - |
| 1777148787 | 1.11° C | 63% | 993.3 hPa | 0 mm | - | - | - |
| 1777147587 | 1.11° C | 64% | 993.2 hPa | 0 mm | - | - | - |
| 1777146387 | 1.67° C | 64% | 992.9 hPa | 0 mm | - | - | - |
| 1777145187 | 2.22° C | 56% | 992.9 hPa | 0 mm | - | - | - |
| 1777143987 | 1.67° C | 60% | 992.8 hPa | 0 mm | - | - | - |
| 1777142787 | 1.67° C | 68% | 992.9 hPa | 0.25 mm | - | - | - |
| 1777141587 | 1.11° C | 74% | 992.7 hPa | 0.25 mm | - | - | - |
| 1777140387 | 1.67° C | 73% | 992.6 hPa | 0.25 mm | - | - | - |
| 1777139186 | 0.56° C | 88% | 992.6 hPa | 0.76 mm | - | - | - |
| 1777137986 | 0.56° C | 92% | 992.5 hPa | 0.76 mm | - | - | - |
| 1777136786 | 0.56° C | 94% | 992.3 hPa | 0.76 mm | - | - | - |
| 1777135586 | 0.56° C | 94% | 992.2 hPa | 0.25 mm | - | - | - |
| 1777134386 | 0.56° C | 94% | 992 hPa | 0.25 mm | - | - | - |
| 1777133186 | 1.11° C | 93% | 991.9 hPa | 0.25 mm | - | - | - |
| 1777131986 | 0.56° C | 93% | 991.7 hPa | 0.51 mm | - | - | - |
| 1777130786 | 0.56° C | 92% | 991.5 hPa | 0.51 mm | - | - | - |
| 1777129586 | 0.56° C | 93% | 991.4 hPa | 0.51 mm | - | - | - |
| 1777128386 | 0.56° C | 92% | 991.1 hPa | 0.25 mm | - | - | - |
| 1777127186 | 0.56° C | 93% | 991 hPa | 0.25 mm | - | - | - |
| 1777125986 | 0.56° C | 92% | 991 hPa | 0.25 mm | - | - | - |
| 1777124786 | 1.11° C | 91% | 990.8 hPa | 0.25 mm | - | - | - |
| 1777123586 | 1.11° C | 90% | 990.8 hPa | 0.25 mm | - | - | - |
| 1777122386 | 0.56° C | 91% | 990.8 hPa | 0.25 mm | - | - | - |
* Rain latest hour (hover to see other rain measurements)
** Current wind speed in m/s (hover to see current wind gust speed)